sensor_id;sensor_type;location;lat;lon;timestamp;temperature;humidity
64796;DHT22;51229;51.980;6.722;2023-04-03T00:01:17;1.30;99.90
64796;DHT22;51229;51.980;6.722;2023-04-03T00:03:43;1.20;99.90
64796;DHT22;51229;51.980;6.722;2023-04-03T00:06:10;1.20;99.90
64796;DHT22;51229;51.980;6.722;2023-04-03T00:08:37;1.30;99.90
64796;DHT22;51229;51.980;6.722;2023-04-03T00:11:03;1.00;99.90
64796;DHT22;51229;51.980;6.722;2023-04-03T00:13:33;1.10;99.90
64796;DHT22;51229;51.980;6.722;2023-04-03T00:15:59;1.10;99.90
64796;DHT22;51229;51.980;6.722;2023-04-03T00:18:25;0.90;99.90
64796;DHT22;51229;51.980;6.722;2023-04-03T00:20:50;1.10;99.90
64796;DHT22;51229;51.980;6.722;2023-04-03T00:23:16;1.20;99.90
64796;DHT22;51229;51.980;6.722;2023-04-03T00:25:42;1.30;99.90
64796;DHT22;51229;51.980;6.722;2023-04-03T00:28:08;1.00;99.90
64796;DHT22;51229;51.980;6.722;2023-04-03T00:30:34;0.70;99.90
64796;DHT22;51229;51.980;6.722;2023-04-03T00:33:00;1.20;99.90
64796;DHT22;51229;51.980;6.722;2023-04-03T00:35:26;1.10;99.90
64796;DHT22;51229;51.980;6.722;2023-04-03T00:37:53;1.00;99.90
64796;DHT22;51229;51.980;6.722;2023-04-03T00:40:20;0.60;99.90
64796;DHT22;51229;51.980;6.722;2023-04-03T00:42:48;0.70;99.90
64796;DHT22;51229;51.980;6.722;2023-04-03T00:45:35;0.70;99.90
64796;DHT22;51229;51.980;6.722;2023-04-03T00:48:04;0.70;99.90
64796;DHT22;51229;51.980;6.722;2023-04-03T00:50:31;1.00;99.90
64796;DHT22;51229;51.980;6.722;2023-04-03T00:52:58;0.90;99.90
64796;DHT22;51229;51.980;6.722;2023-04-03T00:55:24;1.00;99.90
64796;DHT22;51229;51.980;6.722;2023-04-03T00:57:51;0.90;99.90
64796;DHT22;51229;51.980;6.722;2023-04-03T01:00:20;0.80;99.90
64796;DHT22;51229;51.980;6.722;2023-04-03T01:02:46;0.50;99.90
64796;DHT22;51229;51.980;6.722;2023-04-03T01:05:15;0.70;99.90
64796;DHT22;51229;51.980;6.722;2023-04-03T01:07:42;0.60;99.90
64796;DHT22;51229;51.980;6.722;2023-04-03T01:10:11;0.70;99.90
64796;DHT22;51229;51.980;6.722;2023-04-03T01:12:41;0.60;99.90
64796;DHT22;51229;51.980;6.722;2023-04-03T01:15:14;0.40;99.90
64796;DHT22;51229;51.980;6.722;2023-04-03T01:17:57;0.70;99.90
64796;DHT22;51229;51.980;6.722;2023-04-03T01:25:50;0.40;99.90
64796;DHT22;51229;51.980;6.722;2023-04-03T01:28:21;0.30;99.90
64796;DHT22;51229;51.980;6.722;2023-04-03T01:31:12;0.40;99.90
64796;DHT22;51229;51.980;6.722;2023-04-03T01:33:40;0.60;99.90
64796;DHT22;51229;51.980;6.722;2023-04-03T01:36:07;0.40;99.90
64796;DHT22;51229;51.980;6.722;2023-04-03T01:38:33;0.20;99.90
64796;DHT22;51229;51.980;6.722;2023-04-03T01:40:59;0.40;99.90
64796;DHT22;51229;51.980;6.722;2023-04-03T01:43:25;0.60;99.90
64796;DHT22;51229;51.980;6.722;2023-04-03T01:45:51;0.20;99.90
64796;DHT22;51229;51.980;6.722;2023-04-03T01:48:18;0.40;99.90
64796;DHT22;51229;51.980;6.722;2023-04-03T01:50:44;0.50;99.90
64796;DHT22;51229;51.980;6.722;2023-04-03T01:53:09;0.40;99.90
64796;DHT22;51229;51.980;6.722;2023-04-03T01:55:35;0.10;99.90
64796;DHT22;51229;51.980;6.722;2023-04-03T01:58:01;0.30;99.90
64796;DHT22;51229;51.980;6.722;2023-04-03T02:00:27;0.50;99.90
64796;DHT22;51229;51.980;6.722;2023-04-03T02:02:53;0.40;99.90
64796;DHT22;51229;51.980;6.722;2023-04-03T02:05:19;0.30;99.90
64796;DHT22;51229;51.980;6.722;2023-04-03T02:07:45;0.20;99.90
64796;DHT22;51229;51.980;6.722;2023-04-03T02:10:11;0.40;99.90
64796;DHT22;51229;51.980;6.722;2023-04-03T02:12:37;0.40;99.90
64796;DHT22;51229;51.980;6.722;2023-04-03T02:15:03;0.30;99.90
64796;DHT22;51229;51.980;6.722;2023-04-03T02:17:29;0.40;99.90
64796;DHT22;51229;51.980;6.722;2023-04-03T02:19:55;0.30;99.90
64796;DHT22;51229;51.980;6.722;2023-04-03T02:22:20;0.00;99.90
64796;DHT22;51229;51.980;6.722;2023-04-03T02:24:46;-0.10;99.90
64796;DHT22;51229;51.980;6.722;2023-04-03T02:27:13;0.30;99.90
64796;DHT22;51229;51.980;6.722;2023-04-03T02:29:39;0.00;99.90
64796;DHT22;51229;51.980;6.722;2023-04-03T02:32:05;0.10;99.90
64796;DHT22;51229;51.980;6.722;2023-04-03T02:34:31;0.00;99.90
64796;DHT22;51229;51.980;6.722;2023-04-03T02:36:59;0.10;99.90
64796;DHT22;51229;51.980;6.722;2023-04-03T02:39:25;0.10;99.90
64796;DHT22;51229;51.980;6.722;2023-04-03T02:41:52;-0.20;99.90
64796;DHT22;51229;51.980;6.722;2023-04-03T02:44:22;-0.30;99.90
64796;DHT22;51229;51.980;6.722;2023-04-03T02:46:49;-0.30;99.90
64796;DHT22;51229;51.980;6.722;2023-04-03T02:49:16;0.00;99.90
64796;DHT22;51229;51.980;6.722;2023-04-03T02:51:41;-0.30;99.90
64796;DHT22;51229;51.980;6.722;2023-04-03T02:54:08;-0.20;99.90
64796;DHT22;51229;51.980;6.722;2023-04-03T02:56:37;-0.40;99.90
64796;DHT22;51229;51.980;6.722;2023-04-03T02:59:03;-0.50;99.90
64796;DHT22;51229;51.980;6.722;2023-04-03T03:01:29;-0.10;99.90
64796;DHT22;51229;51.980;6.722;2023-04-03T03:03:58;-0.20;99.90
64796;DHT22;51229;51.980;6.722;2023-04-03T03:06:24;-0.30;99.90
64796;DHT22;51229;51.980;6.722;2023-04-03T03:08:50;-0.30;99.90
64796;DHT22;51229;51.980;6.722;2023-04-03T03:11:16;-0.50;99.90
64796;DHT22;51229;51.980;6.722;2023-04-03T03:13:41;-0.60;99.90
64796;DHT22;51229;51.980;6.722;2023-04-03T03:16:07;-0.30;99.90
64796;DHT22;51229;51.980;6.722;2023-04-03T03:18:34;-0.60;99.90
64796;DHT22;51229;51.980;6.722;2023-04-03T03:21:02;-0.30;99.90
64796;DHT22;51229;51.980;6.722;2023-04-03T03:23:29;-0.20;99.90
64796;DHT22;51229;51.980;6.722;2023-04-03T03:25:57;-0.40;99.90
64796;DHT22;51229;51.980;6.722;2023-04-03T03:28:23;-0.40;99.90
64796;DHT22;51229;51.980;6.722;2023-04-03T03:30:49;-0.40;99.90
64796;DHT22;51229;51.980;6.722;2023-04-03T03:33:16;-0.40;99.90
64796;DHT22;51229;51.980;6.722;2023-04-03T03:35:43;-0.60;99.90
64796;DHT22;51229;51.980;6.722;2023-04-03T03:38:09;-0.70;99.90
64796;DHT22;51229;51.980;6.722;2023-04-03T03:40:35;-0.70;99.90
64796;DHT22;51229;51.980;6.722;2023-04-03T03:43:00;-0.70;99.90
64796;DHT22;51229;51.980;6.722;2023-04-03T03:45:26;-0.70;99.90
64796;DHT22;51229;51.980;6.722;2023-04-03T03:47:52;-0.60;99.90
64796;DHT22;51229;51.980;6.722;2023-04-03T03:50:19;-0.90;99.90
64796;DHT22;51229;51.980;6.722;2023-04-03T03:52:45;-1.10;99.90
64796;DHT22;51229;51.980;6.722;2023-04-03T03:55:11;-1.00;99.90
64796;DHT22;51229;51.980;6.722;2023-04-03T03:57:37;-1.20;99.90
64796;DHT22;51229;51.980;6.722;2023-04-03T04:00:05;-0.70;99.90
64796;DHT22;51229;51.980;6.722;2023-04-03T04:02:41;-0.60;99.90
64796;DHT22;51229;51.980;6.722;2023-04-03T04:05:08;-0.30;99.90
64796;DHT22;51229;51.980;6.722;2023-04-03T04:07:34;-1.00;99.90
64796;DHT22;51229;51.980;6.722;2023-04-03T04:10:01;-1.00;99.90
64796;DHT22;51229;51.980;6.722;2023-04-03T04:12:27;-1.20;99.90
64796;DHT22;51229;51.980;6.722;2023-04-03T04:14:53;-0.90;99.90
64796;DHT22;51229;51.980;6.722;2023-04-03T04:17:19;-0.60;99.90
64796;DHT22;51229;51.980;6.722;2023-04-03T04:19:46;-0.80;99.90
64796;DHT22;51229;51.980;6.722;2023-04-03T04:22:13;-1.00;99.90
64796;DHT22;51229;51.980;6.722;2023-04-03T04:24:38;-1.10;99.90
64796;DHT22;51229;51.980;6.722;2023-04-03T04:27:04;-0.70;99.90
64796;DHT22;51229;51.980;6.722;2023-04-03T04:29:33;-1.00;99.90
64796;DHT22;51229;51.980;6.722;2023-04-03T04:32:02;-1.00;99.90
64796;DHT22;51229;51.980;6.722;2023-04-03T04:34:28;-0.70;99.90
64796;DHT22;51229;51.980;6.722;2023-04-03T04:36:55;-0.60;99.90
64796;DHT22;51229;51.980;6.722;2023-04-03T04:39:21;-0.70;99.90
64796;DHT22;51229;51.980;6.722;2023-04-03T04:41:47;-0.70;99.90
64796;DHT22;51229;51.980;6.722;2023-04-03T04:44:13;-0.80;99.90
64796;DHT22;51229;51.980;6.722;2023-04-03T04:46:39;-0.60;99.90
64796;DHT22;51229;51.980;6.722;2023-04-03T04:49:06;-0.40;99.90
64796;DHT22;51229;51.980;6.722;2023-04-03T04:51:33;-0.30;99.90
64796;DHT22;51229;51.980;6.722;2023-04-03T04:53:59;-0.70;99.90
64796;DHT22;51229;51.980;6.722;2023-04-03T04:56:24;-1.10;99.90
64796;DHT22;51229;51.980;6.722;2023-04-03T04:58:52;-1.10;99.90
64796;DHT22;51229;51.980;6.722;2023-04-03T05:01:20;-1.00;99.90
64796;DHT22;51229;51.980;6.722;2023-04-03T05:03:55;-0.90;99.90
64796;DHT22;51229;51.980;6.722;2023-04-03T05:06:24;-1.10;99.90
64796;DHT22;51229;51.980;6.722;2023-04-03T05:08:49;-1.50;99.90
64796;DHT22;51229;51.980;6.722;2023-04-03T05:11:16;-1.20;99.90
64796;DHT22;51229;51.980;6.722;2023-04-03T05:13:43;-0.80;99.90
64796;DHT22;51229;51.980;6.722;2023-04-03T05:16:09;-0.90;99.90
64796;DHT22;51229;51.980;6.722;2023-04-03T05:18:36;-0.80;99.90
64796;DHT22;51229;51.980;6.722;2023-04-03T05:21:06;-0.80;99.90
64796;DHT22;51229;51.980;6.722;2023-04-03T05:23:32;-0.90;99.90
64796;DHT22;51229;51.980;6.722;2023-04-03T05:26:01;-1.30;99.90
64796;DHT22;51229;51.980;6.722;2023-04-03T05:28:28;-1.20;99.90
64796;DHT22;51229;51.980;6.722;2023-04-03T05:30:57;-1.20;99.90
64796;DHT22;51229;51.980;6.722;2023-04-03T05:33:25;-1.30;99.90
64796;DHT22;51229;51.980;6.722;2023-04-03T05:35:54;-1.30;99.90
64796;DHT22;51229;51.980;6.722;2023-04-03T05:38:25;-1.20;99.90
64796;DHT22;51229;51.980;6.722;2023-04-03T05:40:52;-1.00;99.90
64796;DHT22;51229;51.980;6.722;2023-04-03T05:43:17;-1.00;99.90
64796;DHT22;51229;51.980;6.722;2023-04-03T05:45:44;-1.00;99.90
64796;DHT22;51229;51.980;6.722;2023-04-03T05:48:09;-0.80;99.90
64796;DHT22;51229;51.980;6.722;2023-04-03T05:50:36;-0.50;99.90
64796;DHT22;51229;51.980;6.722;2023-04-03T05:53:07;-0.50;99.90
64796;DHT22;51229;51.980;6.722;2023-04-03T05:55:36;-0.80;99.90
64796;DHT22;51229;51.980;6.722;2023-04-03T05:58:02;-0.80;99.90
64796;DHT22;51229;51.980;6.722;2023-04-03T06:00:28;-0.60;99.90
64796;DHT22;51229;51.980;6.722;2023-04-03T06:02:59;-0.60;99.90
64796;DHT22;51229;51.980;6.722;2023-04-03T06:05:25;-0.70;99.90
64796;DHT22;51229;51.980;6.722;2023-04-03T06:07:51;-0.50;99.90
64796;DHT22;51229;51.980;6.722;2023-04-03T06:10:17;-0.40;99.90
64796;DHT22;51229;51.980;6.722;2023-04-03T06:12:44;-0.50;99.90
64796;DHT22;51229;51.980;6.722;2023-04-03T06:15:10;-0.30;99.90
64796;DHT22;51229;51.980;6.722;2023-04-03T06:17:36;-0.30;99.90
64796;DHT22;51229;51.980;6.722;2023-04-03T06:20:03;0.10;99.90
64796;DHT22;51229;51.980;6.722;2023-04-03T06:22:30;0.20;99.90
64796;DHT22;51229;51.980;6.722;2023-04-03T06:24:56;0.00;99.90
64796;DHT22;51229;51.980;6.722;2023-04-03T06:27:22;0.10;99.90
64796;DHT22;51229;51.980;6.722;2023-04-03T06:29:48;0.10;99.90
64796;DHT22;51229;51.980;6.722;2023-04-03T06:32:15;0.40;99.90
64796;DHT22;51229;51.980;6.722;2023-04-03T06:34:41;0.80;99.90
64796;DHT22;51229;51.980;6.722;2023-04-03T06:37:16;0.80;99.90
64796;DHT22;51229;51.980;6.722;2023-04-03T06:39:43;1.10;99.90
64796;DHT22;51229;51.980;6.722;2023-04-03T06:42:08;1.30;99.90
64796;DHT22;51229;51.980;6.722;2023-04-03T06:44:42;1.20;99.90
64796;DHT22;51229;51.980;6.722;2023-04-03T06:47:13;1.10;99.90
64796;DHT22;51229;51.980;6.722;2023-04-03T06:49:39;0.70;99.90
64796;DHT22;51229;51.980;6.722;2023-04-03T06:52:05;1.00;99.90
64796;DHT22;51229;51.980;6.722;2023-04-03T06:54:31;1.40;99.90
64796;DHT22;51229;51.980;6.722;2023-04-03T06:56:57;1.30;99.90
64796;DHT22;51229;51.980;6.722;2023-04-03T06:59:23;1.70;99.90
64796;DHT22;51229;51.980;6.722;2023-04-03T07:01:49;2.00;99.90
64796;DHT22;51229;51.980;6.722;2023-04-03T07:04:15;2.10;99.90
64796;DHT22;51229;51.980;6.722;2023-04-03T07:06:41;2.30;99.90
64796;DHT22;51229;51.980;6.722;2023-04-03T07:09:09;2.50;99.90
64796;DHT22;51229;51.980;6.722;2023-04-03T07:11:35;2.50;99.90
64796;DHT22;51229;51.980;6.722;2023-04-03T07:14:01;2.70;99.90
64796;DHT22;51229;51.980;6.722;2023-04-03T07:16:27;2.80;99.90
64796;DHT22;51229;51.980;6.722;2023-04-03T07:18:53;3.10;99.90
64796;DHT22;51229;51.980;6.722;2023-04-03T07:21:18;3.50;99.90
64796;DHT22;51229;51.980;6.722;2023-04-03T07:23:44;3.50;99.90
64796;DHT22;51229;51.980;6.722;2023-04-03T07:26:10;3.00;99.90
64796;DHT22;51229;51.980;6.722;2023-04-03T07:28:36;3.30;99.90
64796;DHT22;51229;51.980;6.722;2023-04-03T07:31:10;3.70;99.90
64796;DHT22;51229;51.980;6.722;2023-04-03T07:33:38;3.50;99.90
64796;DHT22;51229;51.980;6.722;2023-04-03T07:36:04;3.60;99.90
64796;DHT22;51229;51.980;6.722;2023-04-03T07:38:32;3.50;99.90
64796;DHT22;51229;51.980;6.722;2023-04-03T07:40:58;3.80;99.90
64796;DHT22;51229;51.980;6.722;2023-04-03T07:43:23;3.70;99.90
64796;DHT22;51229;51.980;6.722;2023-04-03T07:45:51;4.30;99.90
64796;DHT22;51229;51.980;6.722;2023-04-03T07:48:24;4.70;99.90
64796;DHT22;51229;51.980;6.722;2023-04-03T07:50:50;4.70;99.90
64796;DHT22;51229;51.980;6.722;2023-04-03T07:53:17;4.20;99.50
64796;DHT22;51229;51.980;6.722;2023-04-03T07:55:45;4.30;99.90
64796;DHT22;51229;51.980;6.722;2023-04-03T07:58:16;5.00;99.50
64796;DHT22;51229;51.980;6.722;2023-04-03T08:00:42;4.90;97.20
64796;DHT22;51229;51.980;6.722;2023-04-03T08:03:10;5.00;98.20
64796;DHT22;51229;51.980;6.722;2023-04-03T08:05:38;4.90;93.70
64796;DHT22;51229;51.980;6.722;2023-04-03T08:08:05;5.40;99.90
64796;DHT22;51229;51.980;6.722;2023-04-03T08:10:31;5.80;91.80
64796;DHT22;51229;51.980;6.722;2023-04-03T08:12:57;5.80;94.00
64796;DHT22;51229;51.980;6.722;2023-04-03T08:15:23;6.10;99.90
64796;DHT22;51229;51.980;6.722;2023-04-03T08:17:49;5.80;95.50
64796;DHT22;51229;51.980;6.722;2023-04-03T08:20:14;5.20;91.10
64796;DHT22;51229;51.980;6.722;2023-04-03T08:22:40;6.10;99.90
64796;DHT22;51229;51.980;6.722;2023-04-03T08:25:06;6.70;80.70
64796;DHT22;51229;51.980;6.722;2023-04-03T08:27:32;6.10;84.70
64796;DHT22;51229;51.980;6.722;2023-04-03T08:29:58;6.20;83.40
64796;DHT22;51229;51.980;6.722;2023-04-03T08:32:24;7.00;89.00
64796;DHT22;51229;51.980;6.722;2023-04-03T08:34:49;7.30;90.30
64796;DHT22;51229;51.980;6.722;2023-04-03T08:37:15;7.80;99.50
64796;DHT22;51229;51.980;6.722;2023-04-03T08:39:42;7.80;87.80
64796;DHT22;51229;51.980;6.722;2023-04-03T08:42:33;7.30;83.40
64796;DHT22;51229;51.980;6.722;2023-04-03T08:45:12;7.90;83.00
64796;DHT22;51229;51.980;6.722;2023-04-03T08:48:03;7.50;72.90
64796;DHT22;51229;51.980;6.722;2023-04-03T08:50:49;7.70;72.60
64796;DHT22;51229;51.980;6.722;2023-04-03T08:53:25;7.30;66.50
64796;DHT22;51229;51.980;6.722;2023-04-03T08:55:53;8.10;73.50
64796;DHT22;51229;51.980;6.722;2023-04-03T08:58:22;7.10;72.50
64796;DHT22;51229;51.980;6.722;2023-04-03T09:00:54;7.70;99.90
64796;DHT22;51229;51.980;6.722;2023-04-03T09:03:21;8.40;80.50
64796;DHT22;51229;51.980;6.722;2023-04-03T09:05:55;8.00;77.40
64796;DHT22;51229;51.980;6.722;2023-04-03T09:08:23;8.00;68.60
64796;DHT22;51229;51.980;6.722;2023-04-03T09:13:34;8.00;65.50
64796;DHT22;51229;51.980;6.722;2023-04-03T09:16:14;8.10;64.50
64796;DHT22;51229;51.980;6.722;2023-04-03T09:18:45;7.80;76.00
64796;DHT22;51229;51.980;6.722;2023-04-03T09:21:48;8.90;66.70
64796;DHT22;51229;51.980;6.722;2023-04-03T09:24:15;7.70;99.90
64796;DHT22;51229;51.980;6.722;2023-04-03T09:27:04;8.50;99.90
64796;DHT22;51229;51.980;6.722;2023-04-03T09:29:40;8.70;88.20
64796;DHT22;51229;51.980;6.722;2023-04-03T09:32:29;9.10;66.90
64796;DHT22;51229;51.980;6.722;2023-04-03T09:37:45;9.60;75.60
64796;DHT22;51229;51.980;6.722;2023-04-03T09:42:57;9.20;93.40
64796;DHT22;51229;51.980;6.722;2023-04-03T09:45:32;10.80;62.30
64796;DHT22;51229;51.980;6.722;2023-04-03T09:51:00;8.90;53.60
64796;DHT22;51229;51.980;6.722;2023-04-03T09:53:40;10.00;70.70
64796;DHT22;51229;51.980;6.722;2023-04-03T09:58:46;9.90;55.30
64796;DHT22;51229;51.980;6.722;2023-04-03T10:04:09;9.10;78.40
64796;DHT22;51229;51.980;6.722;2023-04-03T10:09:31;9.90;55.70
64796;DHT22;51229;51.980;6.722;2023-04-03T10:14:37;10.60;91.10
64796;DHT22;51229;51.980;6.722;2023-04-03T10:17:21;10.80;67.50
64796;DHT22;51229;51.980;6.722;2023-04-03T10:22:34;10.80;63.80
64796;DHT22;51229;51.980;6.722;2023-04-03T10:25:20;11.30;65.10
64796;DHT22;51229;51.980;6.722;2023-04-03T10:28:04;10.60;57.80
64796;DHT22;51229;51.980;6.722;2023-04-03T10:44:20;10.90;60.40
64796;DHT22;51229;51.980;6.722;2023-04-03T10:46:52;11.60;79.40
64796;DHT22;51229;51.980;6.722;2023-04-03T10:49:43;10.30;65.90
64796;DHT22;51229;51.980;6.722;2023-04-03T10:52:48;11.60;69.80
64796;DHT22;51229;51.980;6.722;2023-04-03T10:55:46;11.20;53.20
64796;DHT22;51229;51.980;6.722;2023-04-03T10:58:30;10.90;71.30
64796;DHT22;51229;51.980;6.722;2023-04-03T11:01:02;11.80;76.60
64796;DHT22;51229;51.980;6.722;2023-04-03T11:03:42;12.80;59.10
64796;DHT22;51229;51.980;6.722;2023-04-03T11:06:11;13.60;79.30
64796;DHT22;51229;51.980;6.722;2023-04-03T11:09:03;13.50;92.40
64796;DHT22;51229;51.980;6.722;2023-04-03T11:11:38;12.30;56.00
64796;DHT22;51229;51.980;6.722;2023-04-03T11:20:10;12.20;99.90
64796;DHT22;51229;51.980;6.722;2023-04-03T11:22:47;12.30;77.50
64796;DHT22;51229;51.980;6.722;2023-04-03T11:25:23;11.80;62.90
64796;DHT22;51229;51.980;6.722;2023-04-03T11:27:57;12.40;68.30
64796;DHT22;51229;51.980;6.722;2023-04-03T11:33:20;12.10;59.00
64796;DHT22;51229;51.980;6.722;2023-04-03T11:35:51;13.70;74.40
64796;DHT22;51229;51.980;6.722;2023-04-03T11:38:31;12.30;59.40
64796;DHT22;51229;51.980;6.722;2023-04-03T11:41:00;13.30;74.40
64796;DHT22;51229;51.980;6.722;2023-04-03T11:43:32;12.20;58.60
64796;DHT22;51229;51.980;6.722;2023-04-03T11:46:01;12.60;55.70
64796;DHT22;51229;51.980;6.722;2023-04-03T11:50:55;11.40;92.50
64796;DHT22;51229;51.980;6.722;2023-04-03T11:53:33;12.90;55.50
64796;DHT22;51229;51.980;6.722;2023-04-03T11:58:34;13.00;59.00
64796;DHT22;51229;51.980;6.722;2023-04-03T12:13:40;13.40;61.80
64796;DHT22;51229;51.980;6.722;2023-04-03T12:21:16;12.30;61.20
64796;DHT22;51229;51.980;6.722;2023-04-03T12:26:28;14.20;67.70
64796;DHT22;51229;51.980;6.722;2023-04-03T12:28:55;13.60;57.30
64796;DHT22;51229;51.980;6.722;2023-04-03T12:31:25;12.90;52.60
64796;DHT22;51229;51.980;6.722;2023-04-03T12:43:02;13.60;71.00
64796;DHT22;51229;51.980;6.722;2023-04-03T12:48:54;11.50;59.80
64796;DHT22;51229;51.980;6.722;2023-04-03T12:51:40;14.70;57.60
64796;DHT22;51229;51.980;6.722;2023-04-03T12:54:32;14.70;58.40
64796;DHT22;51229;51.980;6.722;2023-04-03T12:59:40;12.90;68.40
64796;DHT22;51229;51.980;6.722;2023-04-03T13:02:24;13.00;63.20
64796;DHT22;51229;51.980;6.722;2023-04-03T13:04:53;13.30;68.10
64796;DHT22;51229;51.980;6.722;2023-04-03T13:07:56;12.10;58.50
64796;DHT22;51229;51.980;6.722;2023-04-03T13:10:17;12.40;64.40
64796;DHT22;51229;51.980;6.722;2023-04-03T13:12:51;13.70;58.30
64796;DHT22;51229;51.980;6.722;2023-04-03T13:15:24;12.60;75.70
64796;DHT22;51229;51.980;6.722;2023-04-03T13:17:53;13.60;58.70
64796;DHT22;51229;51.980;6.722;2023-04-03T13:20:28;11.10;84.80
64796;DHT22;51229;51.980;6.722;2023-04-03T13:22:56;11.80;99.90
64796;DHT22;51229;51.980;6.722;2023-04-03T13:25:24;15.10;62.70
64796;DHT22;51229;51.980;6.722;2023-04-03T13:27:51;14.50;74.20
64796;DHT22;51229;51.980;6.722;2023-04-03T13:30:30;11.90;56.00
64796;DHT22;51229;51.980;6.722;2023-04-03T13:32:58;12.60;75.10
64796;DHT22;51229;51.980;6.722;2023-04-03T13:35:44;12.30;56.70
64796;DHT22;51229;51.980;6.722;2023-04-03T13:38:22;12.40;63.50
64796;DHT22;51229;51.980;6.722;2023-04-03T13:40:53;14.00;55.20
64796;DHT22;51229;51.980;6.722;2023-04-03T13:43:25;11.50;60.00
64796;DHT22;51229;51.980;6.722;2023-04-03T13:48:44;12.10;64.10
64796;DHT22;51229;51.980;6.722;2023-04-03T13:53:58;13.70;82.20
64796;DHT22;51229;51.980;6.722;2023-04-03T13:56:33;13.10;75.30
64796;DHT22;51229;51.980;6.722;2023-04-03T13:59:06;12.40;93.50
64796;DHT22;51229;51.980;6.722;2023-04-03T14:01:47;11.40;71.50
64796;DHT22;51229;51.980;6.722;2023-04-03T14:04:20;9.60;65.20
64796;DHT22;51229;51.980;6.722;2023-04-03T14:06:47;9.30;99.90
64796;DHT22;51229;51.980;6.722;2023-04-03T14:09:14;9.30;70.40
64796;DHT22;51229;51.980;6.722;2023-04-03T14:11:40;10.10;87.10
64796;DHT22;51229;51.980;6.722;2023-04-03T14:14:14;10.10;99.90
64796;DHT22;51229;51.980;6.722;2023-04-03T14:16:42;10.50;99.90
64796;DHT22;51229;51.980;6.722;2023-04-03T14:19:23;10.50;66.20
64796;DHT22;51229;51.980;6.722;2023-04-03T14:21:49;9.60;90.90
64796;DHT22;51229;51.980;6.722;2023-04-03T14:24:16;9.20;82.50
64796;DHT22;51229;51.980;6.722;2023-04-03T14:26:43;9.60;82.50
64796;DHT22;51229;51.980;6.722;2023-04-03T14:29:10;9.20;97.10
64796;DHT22;51229;51.980;6.722;2023-04-03T14:31:36;8.80;93.10
64796;DHT22;51229;51.980;6.722;2023-04-03T14:34:02;7.80;93.20
64796;DHT22;51229;51.980;6.722;2023-04-03T14:36:29;8.00;74.50
64796;DHT22;51229;51.980;6.722;2023-04-03T14:38:56;8.00;95.00
64796;DHT22;51229;51.980;6.722;2023-04-03T14:41:24;8.10;81.60
64796;DHT22;51229;51.980;6.722;2023-04-03T14:43:51;8.10;90.70
64796;DHT22;51229;51.980;6.722;2023-04-03T14:46:28;9.10;75.40
64796;DHT22;51229;51.980;6.722;2023-04-03T14:48:55;8.80;83.80
64796;DHT22;51229;51.980;6.722;2023-04-03T14:51:21;9.40;79.90
64796;DHT22;51229;51.980;6.722;2023-04-03T14:53:47;8.60;81.70
64796;DHT22;51229;51.980;6.722;2023-04-03T14:56:18;8.50;78.50
64796;DHT22;51229;51.980;6.722;2023-04-03T14:58:44;8.40;80.10
64796;DHT22;51229;51.980;6.722;2023-04-03T15:01:13;8.50;79.20
64796;DHT22;51229;51.980;6.722;2023-04-03T15:03:39;7.60;83.30
64796;DHT22;51229;51.980;6.722;2023-04-03T15:06:05;8.60;99.90
64796;DHT22;51229;51.980;6.722;2023-04-03T15:08:31;9.30;99.90
64796;DHT22;51229;51.980;6.722;2023-04-03T15:10:58;9.40;99.90
64796;DHT22;51229;51.980;6.722;2023-04-03T15:13:24;9.80;83.40
64796;DHT22;51229;51.980;6.722;2023-04-03T15:15:51;8.80;83.00
64796;DHT22;51229;51.980;6.722;2023-04-03T15:18:22;8.90;95.30
64796;DHT22;51229;51.980;6.722;2023-04-03T15:20:49;8.90;92.00
64796;DHT22;51229;51.980;6.722;2023-04-03T15:23:15;8.00;87.30
64796;DHT22;51229;51.980;6.722;2023-04-03T15:25:46;7.60;83.30
64796;DHT22;51229;51.980;6.722;2023-04-03T15:28:34;7.70;99.90
64796;DHT22;51229;51.980;6.722;2023-04-03T15:31:00;7.20;99.90
64796;DHT22;51229;51.980;6.722;2023-04-03T15:33:27;8.30;99.90
64796;DHT22;51229;51.980;6.722;2023-04-03T15:35:53;9.00;99.90
64796;DHT22;51229;51.980;6.722;2023-04-03T15:38:19;8.00;77.10
64796;DHT22;51229;51.980;6.722;2023-04-03T15:40:45;7.00;96.90
64796;DHT22;51229;51.980;6.722;2023-04-03T15:43:12;7.50;91.80
64796;DHT22;51229;51.980;6.722;2023-04-03T15:45:39;7.60;99.90
64796;DHT22;51229;51.980;6.722;2023-04-03T15:48:06;8.10;94.50
64796;DHT22;51229;51.980;6.722;2023-04-03T15:50:33;7.20;98.00
64796;DHT22;51229;51.980;6.722;2023-04-03T15:52:59;6.90;99.90
64796;DHT22;51229;51.980;6.722;2023-04-03T15:55:30;7.10;99.90
64796;DHT22;51229;51.980;6.722;2023-04-03T15:57:56;7.20;82.80
64796;DHT22;51229;51.980;6.722;2023-04-03T16:00:23;7.40;99.90
64796;DHT22;51229;51.980;6.722;2023-04-03T16:02:52;7.00;82.10
64796;DHT22;51229;51.980;6.722;2023-04-03T16:05:18;6.90;99.90
64796;DHT22;51229;51.980;6.722;2023-04-03T16:07:45;7.90;99.90
64796;DHT22;51229;51.980;6.722;2023-04-03T16:10:13;7.70;99.90
64796;DHT22;51229;51.980;6.722;2023-04-03T16:12:39;7.30;96.50
64796;DHT22;51229;51.980;6.722;2023-04-03T16:15:05;7.10;99.90
64796;DHT22;51229;51.980;6.722;2023-04-03T16:17:33;7.10;99.90
64796;DHT22;51229;51.980;6.722;2023-04-03T16:20:00;6.70;90.40
64796;DHT22;51229;51.980;6.722;2023-04-03T16:22:27;6.40;97.20
64796;DHT22;51229;51.980;6.722;2023-04-03T16:24:53;6.50;99.90
64796;DHT22;51229;51.980;6.722;2023-04-03T16:27:20;6.20;98.10
64796;DHT22;51229;51.980;6.722;2023-04-03T16:29:46;6.60;98.10
64796;DHT22;51229;51.980;6.722;2023-04-03T16:32:12;6.30;92.40
64796;DHT22;51229;51.980;6.722;2023-04-03T16:34:38;6.10;90.00
64796;DHT22;51229;51.980;6.722;2023-04-03T16:37:05;6.60;84.90
64796;DHT22;51229;51.980;6.722;2023-04-03T16:39:31;6.70;99.90
64796;DHT22;51229;51.980;6.722;2023-04-03T16:41:57;6.90;99.90
64796;DHT22;51229;51.980;6.722;2023-04-03T16:44:23;6.00;88.10
64796;DHT22;51229;51.980;6.722;2023-04-03T16:46:48;6.00;99.90
64796;DHT22;51229;51.980;6.722;2023-04-03T16:49:14;6.40;91.00
64796;DHT22;51229;51.980;6.722;2023-04-03T16:51:39;6.20;99.90
64796;DHT22;51229;51.980;6.722;2023-04-03T16:54:05;6.20;99.90
64796;DHT22;51229;51.980;6.722;2023-04-03T16:56:31;5.80;99.90
64796;DHT22;51229;51.980;6.722;2023-04-03T16:58:57;6.00;93.40
64796;DHT22;51229;51.980;6.722;2023-04-03T17:01:23;6.10;96.90
64796;DHT22;51229;51.980;6.722;2023-04-03T17:03:49;5.70;99.90
64796;DHT22;51229;51.980;6.722;2023-04-03T17:06:19;6.20;99.90
64796;DHT22;51229;51.980;6.722;2023-04-03T17:08:47;5.90;91.00
64796;DHT22;51229;51.980;6.722;2023-04-03T17:11:26;5.70;99.90
64796;DHT22;51229;51.980;6.722;2023-04-03T17:13:52;5.60;94.50
64796;DHT22;51229;51.980;6.722;2023-04-03T17:16:18;5.60;99.90
64796;DHT22;51229;51.980;6.722;2023-04-03T17:18:44;5.40;91.10
64796;DHT22;51229;51.980;6.722;2023-04-03T17:21:11;5.60;94.70
64796;DHT22;51229;51.980;6.722;2023-04-03T17:23:39;5.80;99.90
64796;DHT22;51229;51.980;6.722;2023-04-03T17:26:05;5.70;93.50
64796;DHT22;51229;51.980;6.722;2023-04-03T17:28:32;5.60;99.90
64796;DHT22;51229;51.980;6.722;2023-04-03T17:31:00;5.90;97.20